sensor_id;sensor_type;location;lat;lon;timestamp;P1;durP1;ratioP1;P2;durP2;ratioP2
63095;SDS011;49184;55.596;37.770;2023-08-30T06:50:23;14.70;;;8.75;;
63095;SDS011;49184;55.596;37.770;2023-08-30T06:52:50;17.85;;;8.82;;
63095;SDS011;49184;55.596;37.770;2023-08-30T06:55:16;21.23;;;9.13;;
63095;SDS011;49184;55.596;37.770;2023-08-30T06:57:47;21.75;;;9.80;;
63095;SDS011;49184;55.596;37.770;2023-08-30T07:00:15;20.15;;;9.68;;
63095;SDS011;49184;55.596;37.770;2023-08-30T07:02:42;21.88;;;9.35;;
63095;SDS011;49184;55.596;37.770;2023-08-30T07:05:12;59.97;;;11.00;;
63095;SDS011;49184;55.596;37.770;2023-08-30T07:07:44;22.02;;;9.65;;
63095;SDS011;49184;55.596;37.770;2023-08-30T07:10:10;19.00;;;9.48;;
63095;SDS011;49184;55.596;37.770;2023-08-30T07:12:37;69.40;;;11.27;;
63095;SDS011;49184;55.596;37.770;2023-08-30T07:15:05;39.35;;;9.57;;
63095;SDS011;49184;55.596;37.770;2023-08-30T07:17:31;58.83;;;9.57;;
63095;SDS011;49184;55.596;37.770;2023-08-30T07:19:57;49.27;;;9.70;;
63095;SDS011;49184;55.596;37.770;2023-08-30T07:22:24;16.90;;;9.38;;
63095;SDS011;49184;55.596;37.770;2023-08-30T07:24:50;14.40;;;8.77;;
63095;SDS011;49184;55.596;37.770;2023-08-30T07:27:17;72.68;;;10.55;;
63095;SDS011;49184;55.596;37.770;2023-08-30T07:29:43;30.30;;;9.00;;
63095;SDS011;49184;55.596;37.770;2023-08-30T07:32:09;22.00;;;9.63;;
63095;SDS011;49184;55.596;37.770;2023-08-30T07:34:36;21.25;;;8.32;;
63095;SDS011;49184;55.596;37.770;2023-08-30T07:37:16;17.42;;;8.95;;
63095;SDS011;49184;55.596;37.770;2023-08-30T07:39:43;35.15;;;10.88;;
63095;SDS011;49184;55.596;37.770;2023-08-30T07:42:11;23.65;;;9.63;;
63095;SDS011;49184;55.596;37.770;2023-08-30T07:44:37;23.55;;;9.40;;
63095;SDS011;49184;55.596;37.770;2023-08-30T07:47:03;24.35;;;10.82;;
63095;SDS011;49184;55.596;37.770;2023-08-30T07:49:31;20.88;;;9.95;;
63095;SDS011;49184;55.596;37.770;2023-08-30T07:51:58;37.15;;;11.00;;
63095;SDS011;49184;55.596;37.770;2023-08-30T07:54:25;17.33;;;9.07;;
63095;SDS011;49184;55.596;37.770;2023-08-30T07:56:51;29.67;;;11.27;;
63095;SDS011;49184;55.596;37.770;2023-08-30T07:59:19;30.38;;;9.50;;
63095;SDS011;49184;55.596;37.770;2023-08-30T08:01:45;22.38;;;9.35;;
63095;SDS011;49184;55.596;37.770;2023-08-30T08:06:41;33.03;;;10.13;;
63095;SDS011;49184;55.596;37.770;2023-08-30T08:09:07;21.77;;;8.97;;
63095;SDS011;49184;55.596;37.770;2023-08-30T08:11:34;17.02;;;9.23;;
63095;SDS011;49184;55.596;37.770;2023-08-30T08:14:01;25.52;;;9.40;;
63095;SDS011;49184;55.596;37.770;2023-08-30T08:16:29;21.45;;;9.23;;
63095;SDS011;49184;55.596;37.770;2023-08-30T08:18:59;18.23;;;9.70;;
63095;SDS011;49184;55.596;37.770;2023-08-30T08:21:26;25.92;;;10.52;;
63095;SDS011;49184;55.596;37.770;2023-08-30T08:23:52;19.52;;;10.55;;
63095;SDS011;49184;55.596;37.770;2023-08-30T08:26:19;19.93;;;9.60;;
63095;SDS011;49184;55.596;37.770;2023-08-30T08:28:46;28.05;;;9.73;;
63095;SDS011;49184;55.596;37.770;2023-08-30T08:31:12;24.17;;;9.17;;
63095;SDS011;49184;55.596;37.770;2023-08-30T08:33:43;19.88;;;8.52;;
63095;SDS011;49184;55.596;37.770;2023-08-30T08:36:23;25.52;;;9.07;;
63095;SDS011;49184;55.596;37.770;2023-08-30T08:38:52;26.25;;;9.50;;
63095;SDS011;49184;55.596;37.770;2023-08-30T08:41:18;21.00;;;8.70;;
63095;SDS011;49184;55.596;37.770;2023-08-30T08:43:51;36.40;;;11.85;;
63095;SDS011;49184;55.596;37.770;2023-08-30T08:46:19;18.80;;;10.00;;
63095;SDS011;49184;55.596;37.770;2023-08-30T08:48:50;30.15;;;9.43;;
63095;SDS011;49184;55.596;37.770;2023-08-30T08:51:18;23.30;;;10.32;;
63095;SDS011;49184;55.596;37.770;2023-08-30T08:53:46;17.63;;;9.30;;
63095;SDS011;49184;55.596;37.770;2023-08-30T08:56:14;34.65;;;8.85;;
63095;SDS011;49184;55.596;37.770;2023-08-30T08:58:44;23.33;;;9.25;;
63095;SDS011;49184;55.596;37.770;2023-08-30T09:03:43;17.13;;;9.25;;
63095;SDS011;49184;55.596;37.770;2023-08-30T09:06:11;29.50;;;9.50;;
63095;SDS011;49184;55.596;37.770;2023-08-30T09:08:42;28.13;;;8.95;;
63095;SDS011;49184;55.596;37.770;2023-08-30T09:11:26;21.30;;;10.05;;
63095;SDS011;49184;55.596;37.770;2023-08-30T09:14:16;35.13;;;10.75;;
63095;SDS011;49184;55.596;37.770;2023-08-30T09:16:42;23.83;;;10.68;;
63095;SDS011;49184;55.596;37.770;2023-08-30T09:19:21;23.27;;;9.80;;
63095;SDS011;49184;55.596;37.770;2023-08-30T09:27:43;12.05;;;8.90;;
63095;SDS011;49184;55.596;37.770;2023-08-30T09:33:57;18.00;;;9.67;;
63095;SDS011;49184;55.596;37.770;2023-08-30T09:48:56;52.58;;;8.80;;
63095;SDS011;49184;55.596;37.770;2023-08-30T09:51:39;21.45;;;7.85;;
63095;SDS011;49184;55.596;37.770;2023-08-30T10:16:02;21.35;;;8.70;;
63095;SDS011;49184;55.596;37.770;2023-08-30T10:21:49;21.23;;;8.85;;
63095;SDS011;49184;55.596;37.770;2023-08-30T10:25:15;16.85;;;8.30;;
63095;SDS011;49184;55.596;37.770;2023-08-30T10:27:59;13.80;;;8.65;;
63095;SDS011;49184;55.596;37.770;2023-08-30T10:30:50;21.60;;;9.43;;
63095;SDS011;49184;55.596;37.770;2023-08-30T10:33:18;20.25;;;8.98;;
63095;SDS011;49184;55.596;37.770;2023-08-30T10:36:26;25.23;;;8.85;;
63095;SDS011;49184;55.596;37.770;2023-08-30T10:39:27;16.25;;;8.85;;
63095;SDS011;49184;55.596;37.770;2023-08-30T10:50:45;14.60;;;7.63;;
63095;SDS011;49184;55.596;37.770;2023-08-30T11:02:37;19.73;;;8.48;;
63095;SDS011;49184;55.596;37.770;2023-08-30T11:05:06;20.83;;;7.47;;
63095;SDS011;49184;55.596;37.770;2023-08-30T11:08:28;18.63;;;7.97;;
63095;SDS011;49184;55.596;37.770;2023-08-30T11:15:07;30.38;;;8.88;;
63095;SDS011;49184;55.596;37.770;2023-08-30T11:17:42;20.73;;;7.80;;
63095;SDS011;49184;55.596;37.770;2023-08-30T11:20:16;22.08;;;8.68;;
63095;SDS011;49184;55.596;37.770;2023-08-30T11:23:04;21.60;;;8.40;;
63095;SDS011;49184;55.596;37.770;2023-08-30T11:25:50;35.47;;;8.35;;
63095;SDS011;49184;55.596;37.770;2023-08-30T11:28:22;20.25;;;7.72;;
63095;SDS011;49184;55.596;37.770;2023-08-30T11:30:55;27.90;;;9.52;;
63095;SDS011;49184;55.596;37.770;2023-08-30T11:33:26;13.73;;;8.23;;
63095;SDS011;49184;55.596;37.770;2023-08-30T11:35:58;14.60;;;7.88;;
63095;SDS011;49184;55.596;37.770;2023-08-30T11:38:26;17.85;;;8.02;;
63095;SDS011;49184;55.596;37.770;2023-08-30T11:41:27;24.27;;;7.18;;
63095;SDS011;49184;55.596;37.770;2023-08-30T11:43:54;19.98;;;7.47;;
63095;SDS011;49184;55.596;37.770;2023-08-30T11:46:35;18.13;;;7.45;;
63095;SDS011;49184;55.596;37.770;2023-08-30T11:49:01;27.75;;;8.63;;
63095;SDS011;49184;55.596;37.770;2023-08-30T11:58:28;18.40;;;7.45;;
63095;SDS011;49184;55.596;37.770;2023-08-30T12:01:17;22.25;;;7.53;;
63095;SDS011;49184;55.596;37.770;2023-08-30T12:03:52;28.33;;;8.18;;
63095;SDS011;49184;55.596;37.770;2023-08-30T12:06:27;36.57;;;9.57;;
63095;SDS011;49184;55.596;37.770;2023-08-30T13:10:58;34.65;;;9.35;;
63095;SDS011;49184;55.596;37.770;2023-08-30T13:16:48;17.23;;;7.60;;
63095;SDS011;49184;55.596;37.770;2023-08-30T13:19:32;35.30;;;8.95;;
63095;SDS011;49184;55.596;37.770;2023-08-30T14:37:48;22.40;;;5.68;;
63095;SDS011;49184;55.596;37.770;2023-08-30T14:40:15;15.85;;;5.80;;
63095;SDS011;49184;55.596;37.770;2023-08-30T14:42:42;14.70;;;6.88;;
63095;SDS011;49184;55.596;37.770;2023-08-30T14:45:08;28.65;;;6.65;;
63095;SDS011;49184;55.596;37.770;2023-08-30T14:47:42;35.25;;;8.73;;
63095;SDS011;49184;55.596;37.770;2023-08-30T14:50:24;23.92;;;6.70;;
63095;SDS011;49184;55.596;37.770;2023-08-30T14:52:57;42.83;;;8.00;;
63095;SDS011;49184;55.596;37.770;2023-08-30T15:04:24;19.35;;;7.97;;
63095;SDS011;49184;55.596;37.770;2023-08-30T15:06:53;16.50;;;6.78;;
63095;SDS011;49184;55.596;37.770;2023-08-30T15:09:22;18.10;;;6.65;;
63095;SDS011;49184;55.596;37.770;2023-08-30T15:11:50;29.35;;;6.40;;
63095;SDS011;49184;55.596;37.770;2023-08-30T15:14:16;21.20;;;5.70;;
63095;SDS011;49184;55.596;37.770;2023-08-30T15:22:35;18.45;;;7.22;;
63095;SDS011;49184;55.596;37.770;2023-08-30T15:25:01;12.05;;;5.60;;
63095;SDS011;49184;55.596;37.770;2023-08-30T15:27:34;24.67;;;6.07;;
63095;SDS011;49184;55.596;37.770;2023-08-30T15:30:04;13.65;;;5.78;;
63095;SDS011;49184;55.596;37.770;2023-08-30T15:32:49;20.80;;;6.38;;
63095;SDS011;49184;55.596;37.770;2023-08-30T15:35:16;22.65;;;5.72;;
63095;SDS011;49184;55.596;37.770;2023-08-30T15:37:43;28.85;;;7.00;;
63095;SDS011;49184;55.596;37.770;2023-08-30T15:40:11;34.58;;;6.78;;
63095;SDS011;49184;55.596;37.770;2023-08-30T15:42:39;29.92;;;6.35;;
63095;SDS011;49184;55.596;37.770;2023-08-30T15:45:06;23.02;;;6.22;;
63095;SDS011;49184;55.596;37.770;2023-08-30T15:47:33;31.65;;;6.82;;
63095;SDS011;49184;55.596;37.770;2023-08-30T15:49:59;16.00;;;6.28;;
63095;SDS011;49184;55.596;37.770;2023-08-30T15:52:29;20.73;;;6.72;;
63095;SDS011;49184;55.596;37.770;2023-08-30T15:55:11;21.38;;;6.55;;
63095;SDS011;49184;55.596;37.770;2023-08-30T15:58:03;18.25;;;6.63;;
63095;SDS011;49184;55.596;37.770;2023-08-30T16:01:20;26.75;;;7.88;;
63095;SDS011;49184;55.596;37.770;2023-08-30T16:07:42;38.72;;;7.40;;
63095;SDS011;49184;55.596;37.770;2023-08-30T16:10:12;28.63;;;7.55;;
63095;SDS011;49184;55.596;37.770;2023-08-30T16:12:42;32.80;;;7.85;;
63095;SDS011;49184;55.596;37.770;2023-08-30T16:15:10;27.00;;;7.67;;
63095;SDS011;49184;55.596;37.770;2023-08-30T16:17:36;18.88;;;6.95;;
63095;SDS011;49184;55.596;37.770;2023-08-30T16:20:11;20.35;;;6.63;;
63095;SDS011;49184;55.596;37.770;2023-08-30T16:22:39;10.68;;;6.80;;
63095;SDS011;49184;55.596;37.770;2023-08-30T16:25:13;20.83;;;7.45;;
63095;SDS011;49184;55.596;37.770;2023-08-30T16:27:40;28.27;;;7.63;;
63095;SDS011;49184;55.596;37.770;2023-08-30T16:30:11;17.00;;;7.43;;
63095;SDS011;49184;55.596;37.770;2023-08-30T16:32:40;24.85;;;7.30;;
63095;SDS011;49184;55.596;37.770;2023-08-30T16:35:07;36.70;;;8.70;;
63095;SDS011;49184;55.596;37.770;2023-08-30T16:37:35;51.50;;;8.98;;
63095;SDS011;49184;55.596;37.770;2023-08-30T16:40:03;52.47;;;8.63;;
63095;SDS011;49184;55.596;37.770;2023-08-30T16:42:30;81.38;;;10.13;;
63095;SDS011;49184;55.596;37.770;2023-08-30T16:44:57;34.75;;;9.20;;
63095;SDS011;49184;55.596;37.770;2023-08-30T16:47:24;25.67;;;8.93;;
63095;SDS011;49184;55.596;37.770;2023-08-30T16:49:53;27.05;;;8.60;;
63095;SDS011;49184;55.596;37.770;2023-08-30T16:52:24;28.17;;;9.45;;
63095;SDS011;49184;55.596;37.770;2023-08-30T16:54:57;36.35;;;9.93;;
63095;SDS011;49184;55.596;37.770;2023-08-30T16:57:29;30.67;;;12.00;;
63095;SDS011;49184;55.596;37.770;2023-08-30T16:59:55;38.53;;;13.30;;
63095;SDS011;49184;55.596;37.770;2023-08-30T17:02:24;27.27;;;13.98;;
63095;SDS011;49184;55.596;37.770;2023-08-30T17:04:57;36.25;;;14.18;;
63095;SDS011;49184;55.596;37.770;2023-08-30T17:07:25;33.03;;;14.27;;
63095;SDS011;49184;55.596;37.770;2023-08-30T17:09:51;31.98;;;14.52;;
63095;SDS011;49184;55.596;37.770;2023-08-30T17:12:21;46.38;;;22.45;;
63095;SDS011;49184;55.596;37.770;2023-08-30T17:14:48;52.72;;;21.38;;
63095;SDS011;49184;55.596;37.770;2023-08-30T17:17:20;52.05;;;20.25;;
63095;SDS011;49184;55.596;37.770;2023-08-30T17:19:49;42.60;;;19.08;;
63095;SDS011;49184;55.596;37.770;2023-08-30T17:22:17;47.70;;;19.70;;
63095;SDS011;49184;55.596;37.770;2023-08-30T17:24:43;38.85;;;16.77;;
63095;SDS011;49184;55.596;37.770;2023-08-30T17:27:09;35.45;;;15.55;;
63095;SDS011;49184;55.596;37.770;2023-08-30T17:29:37;34.28;;;13.85;;
63095;SDS011;49184;55.596;37.770;2023-08-30T17:32:04;43.80;;;12.47;;
63095;SDS011;49184;55.596;37.770;2023-08-30T17:34:33;60.42;;;14.32;;
63095;SDS011;49184;55.596;37.770;2023-08-30T17:37:03;59.10;;;15.40;;
63095;SDS011;49184;55.596;37.770;2023-08-30T17:39:34;30.40;;;13.05;;
63095;SDS011;49184;55.596;37.770;2023-08-30T17:42:09;32.92;;;12.52;;
63095;SDS011;49184;55.596;37.770;2023-08-30T17:44:57;23.70;;;10.13;;
63095;SDS011;49184;55.596;37.770;2023-08-30T17:47:29;17.25;;;9.15;;
63095;SDS011;49184;55.596;37.770;2023-08-30T17:50:04;27.52;;;9.23;;
63095;SDS011;49184;55.596;37.770;2023-08-30T17:52:41;36.97;;;10.30;;
63095;SDS011;49184;55.596;37.770;2023-08-30T18:44:24;36.40;;;13.75;;
63095;SDS011;49184;55.596;37.770;2023-08-30T18:47:14;46.28;;;16.65;;
63095;SDS011;49184;55.596;37.770;2023-08-30T18:49:52;37.45;;;16.15;;
63095;SDS011;49184;55.596;37.770;2023-08-30T18:52:24;50.28;;;15.18;;
63095;SDS011;49184;55.596;37.770;2023-08-30T18:54:51;43.03;;;14.90;;
63095;SDS011;49184;55.596;37.770;2023-08-30T18:57:17;38.08;;;14.50;;
63095;SDS011;49184;55.596;37.770;2023-08-30T18:59:46;85.28;;;15.75;;
63095;SDS011;49184;55.596;37.770;2023-08-30T19:02:13;52.00;;;15.05;;
63095;SDS011;49184;55.596;37.770;2023-08-30T19:04:40;40.47;;;14.60;;
63095;SDS011;49184;55.596;37.770;2023-08-30T19:07:07;31.08;;;15.45;;
63095;SDS011;49184;55.596;37.770;2023-08-30T19:09:35;44.65;;;16.10;;
63095;SDS011;49184;55.596;37.770;2023-08-30T19:12:01;38.03;;;16.83;;
63095;SDS011;49184;55.596;37.770;2023-08-30T19:14:34;45.38;;;15.85;;
63095;SDS011;49184;55.596;37.770;2023-08-30T23:48:47;28.05;;;13.65;;
